Time;durP1;ratioP1;P1;durP2;ratioP2;P2;SDS_P1;SDS_P2;PMS_P1;PMS_P2;Temp;Humidity;BMP_temperature;BMP_pressure;BME280_temperature;BME280_humidity;BME280_pressure;Samples;Min_cycle;Max_cycle;Signal;HPM_P1;HPM_P2
2023/06/07 00:01:17;;;;;;;;;8.75;8.00;;;;;23.97;41.26;101189.53;4979155;28;53442;-48
2023/06/07 00:03:42;;;;;;;;;11.50;7.50;;;;;23.96;40.84;101188.69;4978999;28;45302;-47
2023/06/07 00:06:09;;;;;;;;;10.00;7.33;;;;;23.96;41.43;101193.13;4979469;28;68796;-49
2023/06/07 00:08:35;;;;;;;;;9.25;8.50;;;;;23.96;40.94;101188.69;4982399;28;45213;-48
2023/06/07 00:11:02;;;;;;;;;8.00;7.00;;;;;23.95;41.10;101186.97;4982416;28;45227;-49
2023/06/07 00:13:27;;;;;;;;;8.75;7.75;;;;;23.93;41.64;101188.84;4983748;28;45547;-49
2023/06/07 00:15:53;;;;;;;;;12.00;8.75;;;;;23.94;41.71;101188.72;4983029;28;45397;-50
2023/06/07 00:18:19;;;;;;;;;8.50;8.50;;;;;23.92;41.27;101181.84;4983021;28;45427;-49
2023/06/07 00:20:45;;;;;;;;;9.50;8.75;;;;;23.92;41.73;101185.31;4985008;28;45947;-49
2023/06/07 00:23:14;;;;;;;;;10.00;8.75;;;;;23.92;41.76;101187.13;4983091;28;45257;-49
2023/06/07 00:25:40;;;;;;;;;8.25;8.25;;;;;23.92;41.46;101189.78;4982864;28;47469;-48
2023/06/07 00:28:05;;;;;;;;;9.25;5.75;;;;;23.92;41.28;101187.13;4983173;28;45255;-50
2023/06/07 00:30:30;;;;;;;;;9.00;9.00;;;;;23.91;41.60;101180.16;4985262;28;45259;-47
2023/06/07 00:32:56;;;;;;;;;8.33;7.00;;;;;23.91;41.46;101185.44;4982625;28;55209;-50
2023/06/07 00:35:21;;;;;;;;;8.00;7.00;;;;;23.90;41.74;101179.31;4981599;28;57481;-46
2023/06/07 00:37:46;;;;;;;;;10.50;8.00;;;;;23.91;41.97;101185.44;4983034;28;45216;-47
2023/06/07 00:40:12;;;;;;;;;8.00;8.00;;;;;23.92;42.09;101184.50;4981334;28;48016;-51
2023/06/07 00:42:37;;;;;;;;;8.00;7.25;;;;;23.90;42.13;101178.44;4984742;28;45657;-50
2023/06/07 00:45:03;;;;;;;;;11.50;7.75;;;;;23.90;41.99;101187.25;4984412;28;58709;-49
2023/06/07 00:47:29;;;;;;;;;8.00;8.00;;;;;23.90;42.06;101189.03;4986049;28;45550;-49
2023/06/07 00:49:55;;;;;;;;;10.25;9.25;;;;;23.88;41.67;101186.50;4982912;28;45286;-52
2023/06/07 00:52:21;;;;;;;;;4.00;3.50;;;;;23.89;42.20;101189.97;4981285;28;45569;-50
2023/06/07 00:54:47;;;;;;;;;12.25;9.25;;;;;23.88;41.79;101186.50;4978913;28;45978;-47
2023/06/07 00:57:15;;;;;;;;;11.00;8.00;;;;;23.89;41.78;101182.03;4959733;28;45441;-48
2023/06/07 00:59:41;;;;;;;;;13.00;7.75;;;;;23.90;41.71;101189.03;4978365;28;45342;-50
2023/06/07 01:02:07;;;;;;;;;12.00;7.75;;;;;23.90;41.95;101184.59;4983170;28;45298;-48
2023/06/07 01:04:34;;;;;;;;;8.00;8.00;;;;;23.91;42.12;101185.44;4989500;28;46034;-50
2023/06/07 01:07:02;;;;;;;;;9.75;7.25;;;;;23.89;41.79;101176.75;4993208;28;45317;-49
2023/06/07 01:09:28;;;;;;;;;10.25;8.75;;;;;23.90;41.78;101181.09;4980713;28;45455;-48
2023/06/07 01:11:54;;;;;;;;;10.50;7.00;;;;;23.88;41.71;101170.63;4979742;28;45227;-47
2023/06/07 01:14:21;;;;;;;;;8.75;6.25;;;;;23.88;41.76;101175.03;4980867;28;46752;-49
2023/06/07 01:16:51;;;;;;;;;11.00;9.50;;;;;23.88;42.20;101173.25;4986250;28;45685;-48
2023/06/07 01:19:21;;;;;;;;;8.50;7.25;;;;;23.88;41.65;101175.91;4981257;28;45457;-47
2023/06/07 01:21:50;;;;;;;;;8.75;8.75;;;;;23.88;41.50;101175.03;4979664;28;45287;-50
2023/06/07 01:24:18;;;;;;;;;8.75;8.75;;;;;23.88;41.96;101181.19;4980702;28;47353;-46
2023/06/07 01:26:45;;;;;;;;;8.50;8.50;;;;;23.88;42.10;101175.03;4966978;28;45893;-49
2023/06/07 01:29:12;;;;;;;;;10.75;8.25;;;;;23.87;41.60;101175.97;4979240;28;45444;-52
2023/06/07 01:31:40;;;;;;;;;3.75;3.75;;;;;23.87;42.11;101173.34;4978310;28;45262;-53
2023/06/07 01:34:07;;;;;;;;;12.75;9.50;;;;;23.86;42.08;101167.22;4960110;28;46831;-47
2023/06/07 01:36:33;;;;;;;;;7.00;7.00;;;;;23.86;41.72;101171.66;4977607;28;45476;-49
2023/06/07 01:39:01;;;;;;;;;10.25;8.00;;;;;23.87;41.76;101168.03;4981057;28;45498;-49
2023/06/07 01:41:30;;;;;;;;;13.25;9.50;;;;;23.85;42.17;101170.81;4978400;28;45241;-47
2023/06/07 01:43:58;;;;;;;;;13.75;10.00;;;;;23.84;41.87;101162.97;4984414;28;45462;-48
2023/06/07 01:46:24;;;;;;;;;9.00;7.00;;;;;23.82;42.38;101160.41;4978533;28;45236;-49
2023/06/07 01:48:50;;;;;;;;;12.25;9.25;;;;;23.82;42.17;101167.50;4977910;28;45311;-48
2023/06/07 01:51:15;;;;;;;;;13.75;10.00;;;;;23.81;41.82;101157.88;4980371;28;45500;-49
2023/06/07 01:53:41;;;;;;;;;10.25;9.75;;;;;23.81;42.15;101163.16;4981911;28;46981;-48
2023/06/07 01:56:23;;;;;;;;;7.25;7.25;;;;;23.80;41.90;101164.09;4981353;28;45294;-51
2023/06/07 01:59:02;;;;;;;;;6.75;6.50;;;;;23.77;42.19;101162.50;4981429;28;45315;-48
2023/06/07 02:01:50;;;;;;;;;9.50;8.75;;;;;23.77;42.30;101160.69;4982157;28;45498;-48
2023/06/07 02:04:20;;;;;;;;;9.00;6.00;;;;;23.77;42.35;101154.56;4978648;28;46104;-48
2023/06/07 02:06:50;;;;;;;;;11.25;10.00;;;;;23.77;42.38;101154.56;4981184;28;45845;-49
2023/06/07 02:09:18;;;;;;;;;13.75;11.75;;;;;23.74;41.99;101142.41;4983371;28;45400;-50
2023/06/07 02:11:46;;;;;;;;;14.25;8.00;;;;;23.74;42.24;101145.03;4992049;28;45539;-49
2023/06/07 02:14:12;;;;;;;;;9.00;9.00;;;;;23.74;42.05;101145.03;4992146;28;45383;-48
2023/06/07 02:16:37;;;;;;;;;9.75;6.00;;;;;23.75;42.56;101153.81;4981304;28;45404;-52
2023/06/07 02:19:06;;;;;;;;;8.50;6.00;;;;;23.72;42.47;101141.63;4987051;28;45471;-51
2023/06/07 02:21:36;;;;;;;;;6.50;6.50;;;;;23.71;42.01;101145.22;5006312;28;44870;-49
2023/06/07 02:24:03;;;;;;;;;11.00;9.75;;;;;23.71;41.68;101147.00;5004772;28;46557;-49
2023/06/07 02:26:28;;;;;;;;;9.00;8.25;;;;;23.72;42.08;101146.06;4998793;28;45326;-52
2023/06/07 02:28:53;;;;;;;;;8.75;8.75;;;;;23.71;42.32;101141.72;4987825;28;45532;-52
2023/06/07 02:31:20;;;;;;;;;11.00;9.00;;;;;23.71;42.23;101142.59;4981282;28;45552;-49
2023/06/07 02:33:47;;;;;;;;;9.00;9.00;;;;;23.70;42.28;101138.22;4982191;28;46108;-49
2023/06/07 02:36:12;;;;;;;;;14.50;9.75;;;;;23.69;42.26;101133.88;4984260;28;45901;-52
2023/06/07 02:38:38;;;;;;;;;9.75;8.25;;;;;23.68;42.30;101140.13;4987135;28;45267;-48
2023/06/07 02:41:03;;;;;;;;;9.50;7.50;;;;;23.68;41.79;101142.78;4986629;28;45515;-47
2023/06/07 02:43:28;;;;;;;;;10.75;9.25;;;;;23.68;41.79;101134.00;4983743;28;46065;-48
2023/06/07 02:45:54;;;;;;;;;12.50;8.00;;;;;23.69;41.82;101141.81;4985507;28;61708;-47
2023/06/07 02:48:19;;;;;;;;;10.50;9.50;;;;;23.68;41.87;101140.13;4985767;28;45171;-49
2023/06/07 02:50:46;;;;;;;;;11.50;9.00;;;;;23.67;41.86;101138.41;4982136;28;45571;-49
2023/06/07 02:53:11;;;;;;;;;11.75;9.00;;;;;23.67;41.89;101135.78;4980985;28;47106;-50
2023/06/07 02:55:37;;;;;;;;;11.00;9.25;;;;;23.68;41.96;101134.00;4980669;28;45223;-48
2023/06/07 02:58:02;;;;;;;;;6.50;5.25;;;;;23.66;41.59;101138.53;4980511;28;45867;-47
2023/06/07 03:00:27;;;;;;;;;9.00;8.00;;;;;23.65;42.09;101142.97;4984710;28;45674;-48
2023/06/07 03:02:53;;;;;;;;;16.75;11.00;;;;;23.66;41.67;101149.13;4980533;28;59754;-47
2023/06/07 03:05:18;;;;;;;;;12.25;9.25;;;;;23.65;42.04;101136.84;4982496;28;45359;-49
2023/06/07 03:07:46;;;;;;;;;9.50;9.00;;;;;23.63;42.05;101134.28;4990204;28;45260;-51
2023/06/07 03:10:12;;;;;;;;;10.00;8.50;;;;;23.62;41.89;101135.25;4985207;28;45639;-49
2023/06/07 03:12:37;;;;;;;;;11.25;10.50;;;;;23.62;41.81;101138.72;4982500;28;45451;-50
2023/06/07 03:15:03;;;;;;;;;12.25;7.50;;;;;23.60;41.90;101139.78;4980252;28;45227;-50
2023/06/07 03:17:30;;;;;;;;;11.75;9.75;;;;;23.59;42.08;101138.06;4982286;28;45325;-49
2023/06/07 03:19:56;;;;;;;;;11.00;10.00;;;;;23.58;42.12;101136.38;4981146;28;45547;-48
2023/06/07 03:22:22;;;;;;;;;10.75;10.00;;;;;23.57;41.72;101139.97;4988299;28;46248;-49
2023/06/07 03:24:49;;;;;;;;;9.00;8.50;;;;;23.56;41.79;101133.84;4992263;28;45255;-50
2023/06/07 03:27:15;;;;;;;;;12.00;11.00;;;;;23.55;41.83;101137.41;4995428;28;45361;-48
2023/06/07 03:29:41;;;;;;;;;11.50;9.00;;;;;23.56;41.98;101140.91;4993118;28;45251;-49
2023/06/07 03:32:07;;;;;;;;;9.00;8.50;;;;;23.55;42.01;101132.13;4982847;28;46634;-48
2023/06/07 03:34:32;;;;;;;;;14.50;10.50;;;;;23.56;41.97;101135.59;4988680;28;45302;-53
2023/06/07 03:36:57;;;;;;;;;10.25;10.00;;;;;23.53;41.80;101133.19;4983228;28;45404;-50
2023/06/07 03:39:23;;;;;;;;;12.75;10.00;;;;;23.52;42.37;101124.38;4981507;28;45504;-50
2023/06/07 03:41:48;;;;;;;;;9.75;8.50;;;;;23.52;41.97;101123.53;4963270;28;46018;-47
2023/06/07 03:44:13;;;;;;;;;10.25;9.25;;;;;23.52;41.78;101126.19;4980313;28;49738;-50
2023/06/07 03:46:40;;;;;;;;;12.50;10.00;;;;;23.52;42.07;101136.78;4963441;28;45316;-48
2023/06/07 03:49:05;;;;;;;;;14.75;11.50;;;;;23.51;41.78;101133.25;4982744;28;45322;-48
2023/06/07 03:51:32;;;;;;;;;10.75;8.50;;;;;23.47;41.86;101129.97;4979904;28;46191;-47
2023/06/07 03:53:58;;;;;;;;;11.75;10.00;;;;;23.46;42.18;101144.13;4979712;28;45266;-47
2023/06/07 03:56:23;;;;;;;;;11.50;8.75;;;;;23.47;41.99;101135.25;4980165;28;45508;-46
2023/06/07 03:58:48;;;;;;;;;12.75;9.00;;;;;23.47;41.83;101140.56;4982225;28;45338;-49
2023/06/07 04:01:16;;;;;;;;;10.00;9.00;;;;;23.48;41.98;101130.84;4982123;28;58763;-46
2023/06/07 04:03:42;;;;;;;;;10.50;10.25;;;;;23.46;42.31;101136.19;4985951;28;45445;-49
2023/06/07 04:06:08;;;;;;;;;12.50;10.25;;;;;23.46;41.83;101140.66;4980598;28;45356;-48
2023/06/07 04:08:36;;;;;;;;;10.75;9.00;;;;;23.46;41.84;101144.13;4980581;28;45188;-46
2023/06/07 04:11:02;;;;;;;;;10.50;10.50;;;;;23.45;41.64;101142.44;4980023;28;45440;-46
2023/06/07 04:13:27;;;;;;;;;10.50;9.00;;;;;23.46;41.90;101148.59;4980586;28;45311;-46
2023/06/07 04:15:52;;;;;;;;;10.75;10.00;;;;;23.45;41.95;101144.25;4963022;28;45332;-49
2023/06/07 04:18:18;;;;;;;;;10.67;9.00;;;;;23.46;42.08;101148.59;4979626;28;47998;-49
2023/06/07 04:20:43;;;;;;;;;11.25;8.75;;;;;23.46;42.32;101151.25;4979602;28;45932;-46
2023/06/07 04:23:08;;;;;;;;;14.25;11.00;;;;;23.45;42.12;101158.31;4983861;28;45342;-48
2023/06/07 04:25:33;;;;;;;;;10.50;9.00;;;;;23.43;42.17;101146.97;4982119;28;45255;-49
2023/06/07 04:28:03;;;;;;;;;13.50;11.50;;;;;23.43;41.72;101149.63;4979911;28;45505;-50
2023/06/07 04:30:34;;;;;;;;;12.75;10.00;;;;;23.42;41.91;101152.38;4983656;28;45406;-49
2023/06/07 04:33:08;;;;;;;;;13.75;13.25;;;;;23.40;41.83;101160.41;4985456;28;45755;-48
2023/06/07 04:35:37;;;;;;;;;11.00;9.25;;;;;23.42;41.86;101158.53;4984575;28;45524;-51
2023/06/07 04:38:02;;;;;;;;;11.00;11.00;;;;;23.40;42.09;101159.53;4992504;28;44875;-46
2023/06/07 04:40:29;;;;;;;;;9.50;9.50;;;;;23.42;41.98;101168.22;4989025;28;47009;-44
2023/06/07 04:43:04;;;;;;;;;11.25;11.25;;;;;23.39;42.01;101158.72;4980219;28;45847;-48
2023/06/07 04:45:31;;;;;;;;;17.75;12.25;;;;;23.40;41.48;101163.06;4978603;28;45250;-49
2023/06/07 04:47:58;;;;;;;;;12.00;10.50;;;;;23.39;41.97;101157.84;4984770;28;45419;-48
2023/06/07 04:50:23;;;;;;;;;13.00;9.50;;;;;23.40;42.44;101175.41;4981568;28;46990;-50
2023/06/07 04:52:49;;;;;;;;;13.00;10.50;;;;;23.40;41.89;101168.34;4978775;28;45413;-47
2023/06/07 04:55:15;;;;;;;;;12.50;11.25;;;;;23.40;42.44;101173.63;4983318;28;45416;-46
2023/06/07 04:57:42;;;;;;;;;14.25;12.25;;;;;23.40;42.24;101173.63;4996791;28;44798;-48
2023/06/07 05:00:11;;;;;;;;;11.50;10.25;;;;;23.40;42.45;101167.47;4984664;28;46303;-50
2023/06/07 05:02:41;;;;;;;;;14.25;12.25;;;;;23.41;42.18;101170.03;4980152;28;45836;-47
2023/06/07 05:05:08;;;;;;;;;15.00;9.75;;;;;23.40;42.58;101171.00;4978948;28;45398;-48
2023/06/07 05:07:33;;;;;;;;;9.75;9.75;;;;;23.41;43.05;101167.41;4979669;28;45245;-47
2023/06/07 05:09:59;;;;;;;;;13.75;11.00;;;;;23.40;42.58;101171.00;4981715;28;45575;-45
2023/06/07 05:12:24;;;;;;;;;12.50;10.00;;;;;23.40;42.44;101168.34;4980505;28;45331;-50
2023/06/07 05:14:49;;;;;;;;;22.75;13.25;;;;;23.41;42.44;101170.03;4981062;28;45240;-46
2023/06/07 05:17:19;;;;;;;;;17.00;12.50;;;;;23.39;42.28;101174.56;4979285;28;45225;-51
2023/06/07 05:19:44;;;;;;;;;16.00;14.00;;;;;23.36;42.25;101169.47;4978909;28;46978;-49
2023/06/07 05:22:10;;;;;;;;;14.00;9.75;;;;;23.33;42.06;101167.00;4981665;28;45405;-49
2023/06/07 05:24:35;;;;;;;;;12.25;12.00;;;;;23.29;42.62;101173.44;4981243;28;45393;-51
2023/06/07 05:27:01;;;;;;;;;16.75;15.25;;;;;23.22;42.33;101175.63;4985715;28;45520;-50
2023/06/07 05:29:26;;;;;;;;;15.75;14.25;;;;;23.16;42.31;101173.31;4978992;28;46133;-49
2023/06/07 05:31:51;;;;;;;;;19.00;15.00;;;;;23.09;42.37;101162.28;4978322;28;45305;-52
2023/06/07 05:34:17;;;;;;;;;21.25;16.75;;;;;23.00;42.62;101168.97;4980881;28;45373;-50
2023/06/07 05:36:42;;;;;;;;;14.25;9.00;;;;;22.93;42.96;101161.50;4978877;28;45405;-51
2023/06/07 05:39:08;;;;;;;;;21.25;16.50;;;;;22.83;43.06;101161.19;4981543;28;45458;-54
2023/06/07 05:41:33;;;;;;;;;19.00;17.50;;;;;22.78;42.84;101164.13;4979727;28;45314;-53
2023/06/07 05:43:58;;;;;;;;;18.00;16.50;;;;;22.70;43.29;101161.94;4979160;28;45402;-48
2023/06/07 05:46:24;;;;;;;;;20.25;17.25;;;;;22.66;43.28;101159.56;4974482;28;45271;-48
2023/06/07 05:48:50;;;;;;;;;18.25;16.75;;;;;22.62;43.36;101168.63;4960830;28;45579;-47
2023/06/07 05:51:16;;;;;;;;;20.75;15.00;;;;;22.55;43.08;101163.69;4958234;28;45220;-51
2023/06/07 05:53:41;;;;;;;;;17.75;14.25;;;;;22.50;43.60;101160.47;4964507;28;45343;-51
2023/06/07 05:56:09;;;;;;;;;18.25;16.75;;;;;22.48;43.63;101157.06;4965078;28;45216;-51
2023/06/07 05:58:35;;;;;;;;;20.00;16.25;;;;;22.46;43.53;101164.22;4962406;28;46358;-51
2023/06/07 06:01:00;;;;;;;;;21.75;15.75;;;;;22.45;43.72;101167.81;4959698;28;45351;-48
2023/06/07 06:03:26;;;;;;;;;20.25;16.50;;;;;22.42;43.78;101165.38;4950671;28;45334;-50
2023/06/07 06:05:51;;;;;;;;;22.75;19.75;;;;;22.40;43.68;101169.84;4975350;28;44856;-51
2023/06/07 06:08:17;;;;;;;;;21.75;18.25;;;;;22.37;43.90;101170.03;4960284;28;47437;-49
2023/06/07 06:10:44;;;;;;;;;20.25;17.00;;;;;22.35;44.01;101169.25;4967766;28;45705;-50
2023/06/07 06:13:10;;;;;;;;;23.50;16.75;;;;;22.32;44.06;101169.44;4962589;28;45396;-51
2023/06/07 06:15:35;;;;;;;;;12.75;12.75;;;;;22.31;43.86;101168.59;4964649;28;45220;-52
2023/06/07 06:18:01;;;;;;;;;25.50;22.00;;;;;22.31;43.90;101175.66;4960269;28;46104;-52
2023/06/07 06:20:26;;;;;;;;;18.50;18.00;;;;;22.30;44.28;101179.25;4961335;28;45542;-51
2023/06/07 06:22:51;;;;;;;;;22.75;18.50;;;;;22.29;44.20;101175.72;4948405;28;45336;-50
2023/06/07 06:25:17;;;;;;;;;25.50;19.50;;;;;22.30;43.95;101177.44;4958732;28;45262;-52
2023/06/07 06:27:42;;;;;;;;;19.25;17.00;;;;;22.31;43.96;101176.50;4959196;28;45400;-49
2023/06/07 06:30:08;;;;;;;;;20.75;13.75;;;;;22.35;43.99;101185.09;4959061;28;45231;-48
2023/06/07 06:32:34;;;;;;;;;22.50;19.00;;;;;22.36;44.23;101178.88;4966102;28;45282;-52
2023/06/07 06:35:00;;;;;;;;;25.00;18.75;;;;;22.36;44.22;101181.50;4960385;28;45429;-52
2023/06/07 06:37:25;;;;;;;;;20.50;18.00;;;;;22.37;44.36;101192.00;4958882;28;46112;-48
2023/06/07 06:39:51;;;;;;;;;30.75;18.25;;;;;22.38;44.01;101192.84;4964187;28;44705;-49
2023/06/07 06:42:17;;;;;;;;;22.50;18.00;;;;;22.38;44.27;101183.13;4963595;28;45910;-50
2023/06/07 06:44:42;;;;;;;;;20.00;18.25;;;;;22.39;44.02;101184.00;4959914;28;45524;-47
2023/06/07 06:47:07;;;;;;;;;25.75;17.00;;;;;22.38;43.97;101183.13;4957469;28;60308;-50
2023/06/07 06:49:33;;;;;;;;;17.33;15.33;;;;;22.38;44.16;101177.00;4958025;28;56253;-51
2023/06/07 06:51:58;;;;;;;;;26.33;17.33;;;;;22.37;44.09;101180.59;4964798;28;45336;-52
2023/06/07 06:54:23;;;;;;;;;20.00;16.00;;;;;22.36;44.25;101187.66;4970557;28;50625;-51
2023/06/07 06:56:49;;;;;;;;;19.25;15.50;;;;;22.37;44.64;101191.16;4975746;28;46612;-51
2023/06/07 06:59:14;;;;;;;;;18.25;15.75;;;;;22.36;44.33;101179.75;4967489;28;45381;-50
2023/06/07 07:01:45;;;;;;;;;21.00;17.50;;;;;22.38;43.88;101182.28;4961296;28;45283;-48
2023/06/07 07:04:11;;;;;;;;;17.75;17.50;;;;;22.37;44.21;101180.59;4961711;28;45365;-54
2023/06/07 07:06:37;;;;;;;;;19.50;15.50;;;;;22.35;44.49;101175.41;4964539;28;46253;-52
2023/06/07 07:09:03;;;;;;;;;22.50;16.25;;;;;22.36;44.68;101190.31;4963634;28;45263;-48
2023/06/07 07:11:28;;;;;;;;;20.00;17.25;;;;;22.36;44.27;101187.66;4967785;28;45263;-52
2023/06/07 07:13:53;;;;;;;;;24.25;17.50;;;;;22.33;44.71;101181.69;4974919;28;45310;-50
2023/06/07 07:16:19;;;;;;;;;21.75;17.75;;;;;22.33;44.39;101186.97;4965407;28;46432;-55
2023/06/07 07:18:44;;;;;;;;;20.00;16.75;;;;;22.32;44.65;101193.22;4951582;28;45320;-52
2023/06/07 07:21:09;;;;;;;;;16.25;14.00;;;;;22.32;44.12;101182.66;4967153;28;45228;-56
2023/06/07 07:23:35;;;;;;;;;22.00;17.50;;;;;22.32;44.43;101183.50;4964291;28;45398;-51
2023/06/07 07:26:00;;;;;;;;;20.25;16.50;;;;;22.33;44.48;101189.59;4981638;28;52837;-52
2023/06/07 07:28:25;;;;;;;;;21.25;16.25;;;;;22.32;44.56;101193.22;4965805;28;49581;-52
2023/06/07 07:30:51;;;;;;;;;22.25;15.50;;;;;22.32;44.57;101193.22;4965534;28;45462;-49
2023/06/07 07:33:16;;;;;;;;;20.50;17.00;;;;;22.31;44.79;101195.00;4960939;28;45684;-55
2023/06/07 07:35:41;;;;;;;;;19.25;16.50;;;;;22.30;44.44;101201.22;4942581;28;46489;-49
2023/06/07 07:38:07;;;;;;;;;24.25;18.25;;;;;22.30;44.34;101192.44;4959802;28;45508;-47
2023/06/07 07:40:32;;;;;;;;;19.50;18.75;;;;;22.31;44.67;101196.78;4960559;28;51241;-50
2023/06/07 07:42:58;;;;;;;;;19.50;19.00;;;;;22.29;44.45;101188.94;4962766;28;45172;-53
2023/06/07 07:45:23;;;;;;;;;24.25;20.50;;;;;22.32;44.49;101198.50;4964492;28;45627;-52
2023/06/07 07:47:48;;;;;;;;;14.50;12.00;;;;;22.31;44.34;101192.34;4966244;28;45252;-55
2023/06/07 07:50:15;;;;;;;;;23.75;18.50;;;;;22.32;44.64;101201.13;4960989;28;48548;-50
2023/06/07 07:52:41;;;;;;;;;20.75;17.25;;;;;22.31;44.71;101194.16;4962948;28;45565;-52
2023/06/07 07:55:07;;;;;;;;;18.00;16.75;;;;;22.32;44.57;101191.41;4944436;28;45493;-47
2023/06/07 07:57:32;;;;;;;;;18.50;16.50;;;;;22.34;44.72;101191.31;4960410;28;45472;-53
2023/06/07 07:59:58;;;;;;;;;20.00;17.75;;;;;22.34;44.51;101186.03;4960326;28;45473;-49
2023/06/07 08:02:23;;;;;;;;;19.50;15.00;;;;;22.34;44.76;101176.34;4959968;28;45258;-50
2023/06/07 08:04:48;;;;;;;;;27.25;22.50;;;;;22.36;44.62;101178.88;4963350;28;46032;-52
2023/06/07 08:07:16;;;;;;;;;22.75;18.25;;;;;22.36;44.80;101178.88;4961131;28;45330;-50
2023/06/07 08:09:42;;;;;;;;;26.50;19.00;;;;;22.39;44.94;101187.47;4963609;28;45789;-46
2023/06/07 08:12:08;;;;;;;;;24.50;19.75;;;;;22.41;45.32;101182.16;4960899;28;45574;-48
2023/06/07 08:14:33;;;;;;;;;17.50;17.50;;;;;22.44;44.95;101181.13;4965819;28;47118;-49
2023/06/07 08:16:58;;;;;;;;;17.50;16.25;;;;;22.47;45.13;101180.94;4962800;28;45772;-48
2023/06/07 08:19:26;;;;;;;;;20.25;17.00;;;;;22.50;44.87;101178.09;4960608;28;45310;-50
2023/06/07 08:21:51;;;;;;;;;20.50;18.75;;;;;22.52;44.79;101190.31;4961553;28;45495;-51
2023/06/07 08:24:17;;;;;;;;;16.25;13.75;;;;;22.55;44.57;101182.19;4965375;28;46164;-49
2023/06/07 08:26:45;;;;;;;;;20.25;15.25;;;;;22.59;44.73;101187.28;4972664;28;45315;-51
2023/06/07 08:29:11;;;;;;;;;18.25;17.50;;;;;22.61;44.88;101186.25;4975108;28;45220;-48
2023/06/07 08:31:41;;;;;;;;;21.00;16.50;;;;;22.65;44.97;101184.31;4963101;28;45228;-54
2023/06/07 08:34:06;;;;;;;;;16.25;14.25;;;;;22.66;44.71;101180.69;4961260;28;46114;-52
2023/06/07 14:29:22;;;;;;;;;17.75;14.00;;;;;24.46;36.79;100955.81;5420106;23;46854;-56
2023/06/07 14:31:48;;;;;;;;;14.00;14.00;;;;;24.47;36.89;100975.19;4948891;28;45608;-56
2023/06/07 14:34:15;;;;;;;;;14.50;13.75;;;;;24.48;36.37;100976.88;4966109;28;45456;-56
2023/06/07 14:36:40;;;;;;;;;16.25;16.25;;;;;24.48;36.80;100971.59;4961966;28;45489;-57
2023/06/07 14:39:06;;;;;;;;;13.50;12.00;;;;;24.47;36.85;100965.47;4960783;28;45497;-55
2023/06/07 14:41:31;;;;;;;;;13.25;13.25;;;;;24.50;36.77;100970.53;4944372;28;45236;-56
2023/06/07 14:43:58;;;;;;;;;15.75;13.75;;;;;24.51;36.36;100966.09;4960067;28;46886;-54
2023/06/07 14:46:23;;;;;;;;;14.25;13.25;;;;;24.51;36.48;100961.63;4959873;28;45223;-54
2023/06/07 14:48:49;;;;;;;;;15.50;13.00;;;;;24.52;36.01;100958.03;4960655;28;45228;-55
2023/06/07 14:51:16;;;;;;;;;15.50;15.50;;;;;24.52;36.36;100959.84;4963233;28;45661;-54
2023/06/07 14:53:41;;;;;;;;;15.00;13.50;;;;;24.51;36.32;100958.97;4959327;28;45736;-54
2023/06/07 14:56:07;;;;;;;;;15.75;13.25;;;;;24.53;36.39;100958.84;4942452;28;45837;-55
2023/06/07 14:58:32;;;;;;;;;15.50;14.75;;;;;24.51;36.81;100958.13;4960306;28;45438;-53
2023/06/07 15:00:58;;;;;;;;;16.00;13.50;;;;;24.55;36.20;100963.09;4959885;28;45485;-56
2023/06/07 15:03:23;;;;;;;;;15.75;14.00;;;;;24.54;36.22;100960.53;4959542;28;45421;-53
2023/06/07 15:05:48;;;;;;;;;14.75;12.75;;;;;24.55;36.89;100954.28;4959839;28;45349;-55
2023/06/07 15:08:14;;;;;;;;;13.00;13.00;;;;;24.58;36.71;100961.19;4959578;28;45433;-52
2023/06/07 15:10:40;;;;;;;;;15.25;14.25;;;;;24.56;36.22;100958.66;4968453;28;45495;-52
2023/06/07 15:13:06;;;;;;;;;15.75;14.25;;;;;24.57;35.95;100963.00;4972275;28;46028;-54
2023/06/07 15:15:31;;;;;;;;;13.50;11.00;;;;;24.58;36.49;100954.09;4959912;28;45399;-54
2023/06/07 15:17:56;;;;;;;;;14.00;14.00;;;;;24.58;36.00;100954.09;4942491;28;45272;-53
2023/06/07 15:20:22;;;;;;;;;16.25;14.50;;;;;24.57;36.36;100948.91;4959405;28;47992;-54
2023/06/07 15:22:50;;;;;;;;;19.25;16.25;;;;;24.57;36.17;100949.75;4959618;28;47207;-54
2023/06/07 15:25:15;;;;;;;;;14.25;11.25;;;;;24.56;36.36;100958.66;4959866;28;45403;-54
2023/06/07 15:27:41;;;;;;;;;14.50;14.00;;;;;24.56;36.20;100953.34;4960018;28;45900;-55
2023/06/07 15:30:07;;;;;;;;;12.00;12.00;;;;;24.55;35.99;100949.88;4970766;28;45500;-53
2023/06/07 15:32:32;;;;;;;;;13.75;9.00;;;;;24.55;36.07;100959.59;4968850;28;45341;-56
2023/06/07 15:34:57;;;;;;;;;13.50;12.25;;;;;24.54;36.41;100957.91;4960784;28;45348;-54
2023/06/07 15:37:23;;;;;;;;;14.00;13.00;;;;;24.52;36.38;100952.72;4959373;28;45353;-56
2023/06/07 15:39:48;;;;;;;;;16.00;15.00;;;;;24.52;35.67;100957.19;4959336;28;49484;-55
2023/06/07 15:42:14;;;;;;;;;13.50;13.50;;;;;24.52;35.97;100955.38;4960834;28;46726;-55
2023/06/07 15:44:41;;;;;;;;;16.25;15.00;;;;;24.51;35.61;100952.84;4957554;28;45276;-54
2023/06/07 15:47:08;;;;;;;;;15.50;15.00;;;;;24.50;36.38;100951.97;4961607;28;45278;-53
2023/06/07 15:49:34;;;;;;;;;13.00;13.00;;;;;24.51;35.70;100950.19;4980053;28;45172;-54
2023/06/07 15:51:59;;;;;;;;;13.00;13.00;;;;;24.49;35.46;100944.97;4964485;28;45346;-52
2023/06/07 15:54:25;;;;;;;;;14.50;14.00;;;;;24.51;35.64;100945.72;4962041;28;45285;-54
2023/06/07 15:56:50;;;;;;;;;13.75;13.75;;;;;24.50;36.09;100933.44;4963463;28;45243;-55
2023/06/07 15:59:15;;;;;;;;;12.00;11.75;;;;;24.49;36.20;100944.97;4959390;28;45503;-53
2023/06/07 16:01:41;;;;;;;;;16.75;13.25;;;;;24.50;35.99;100937.88;4958132;28;66530;-55
2023/06/07 16:04:06;;;;;;;;;12.50;12.50;;;;;24.50;35.70;100938.72;4959086;28;45322;-55
2023/06/07 16:06:31;;;;;;;;;15.50;14.00;;;;;24.50;35.72;100932.59;4943169;28;45251;-56
2023/06/07 16:09:01;;;;;;;;;15.25;14.00;;;;;24.50;35.91;100937.88;4973183;28;45546;-55
2023/06/07 16:11:27;;;;;;;;;12.50;12.50;;;;;24.48;36.05;100934.50;4958902;28;46141;-56
2023/06/07 16:13:52;;;;;;;;;13.00;13.00;;;;;24.49;35.57;100933.53;4958242;28;54303;-55
2023/06/07 16:16:17;;;;;;;;;16.50;14.00;;;;;24.49;35.53;100928.25;4961046;28;45227;-57
2023/06/07 16:18:43;;;;;;;;;15.25;13.25;;;;;24.48;35.81;100923.91;4964276;28;45284;-55
2023/06/07 16:21:08;;;;;;;;;13.50;13.50;;;;;24.49;35.85;100928.25;4961490;28;46312;-54
2023/06/07 16:23:33;;;;;;;;;14.25;13.25;;;;;24.49;35.77;100936.19;4958481;28;47991;-54
2023/06/07 16:25:59;;;;;;;;;15.00;15.00;;;;;24.48;35.77;100927.38;4962390;28;45337;-55
2023/06/07 16:28:24;;;;;;;;;17.75;14.75;;;;;24.48;35.48;100929.19;4965207;28;45322;-54
2023/06/07 16:30:50;;;;;;;;;14.75;13.75;;;;;24.48;36.25;100924.72;4962604;28;46508;-55
2023/06/07 16:33:16;;;;;;;;;15.75;15.00;;;;;24.48;36.29;100921.25;4958684;28;45413;-55
2023/06/07 16:35:42;;;;;;;;;15.75;15.25;;;;;24.48;35.78;100930.03;4958721;28;45394;-54
2023/06/07 16:38:07;;;;;;;;;14.00;14.00;;;;;24.48;35.98;100930.03;4962581;28;45662;-55
2023/06/07 16:40:33;;;;;;;;;14.00;14.00;;;;;24.49;36.31;100925.59;4961221;28;46293;-55
2023/06/07 16:42:58;;;;;;;;;13.33;10.67;;;;;24.49;35.68;100920.31;4940532;28;59940;-55
2023/06/07 16:45:23;;;;;;;;;15.00;13.25;;;;;24.47;36.27;100922.22;4957046;28;50697;-55
2023/06/07 16:47:49;;;;;;;;;13.00;12.25;;;;;24.48;35.70;100930.03;4960295;28;45254;-54
2023/06/07 16:50:14;;;;;;;;;18.50;14.50;;;;;24.49;36.16;100925.59;4949311;28;45944;-52
2023/06/07 16:52:40;;;;;;;;;13.75;13.50;;;;;24.48;36.09;100923.91;4973017;28;45347;-54
2023/06/07 16:55:08;;;;;;;;;14.25;14.25;;;;;24.49;36.17;100920.31;4973430;28;44816;-55
2023/06/07 16:57:33;;;;;;;;;17.00;14.25;;;;;24.49;35.64;100925.59;4962215;28;45457;-55
2023/06/07 16:59:59;;;;;;;;;18.00;14.00;;;;;24.48;35.68;100927.38;4961253;28;57822;-54
2023/06/07 17:02:24;;;;;;;;;14.50;13.00;;;;;24.48;35.68;100931.84;4960188;28;45286;-55